Time,TemperatureF,DewpointF,PressureIn,WindDirection,WindDirectionDegrees,WindSpeedMPH,WindSpeedGustMPH,Humidity,HourlyPrecipIn,Conditions,Clouds,dailyrainin,SolarRadiationWatts/m^2,SoftwareType,DateUTC
2013-04-11 00:23:00,51.0,48.0,-100.00,ESE,104,16.0,23.0,90,0.00,,,0.00,0.000000,,2013-04-11 10:23:00,
2013-04-11 00:32:00,51.0,48.0,-100.00,ESE,104,16.0,23.0,90,0.00,,,0.00,0.000000,,2013-04-11 10:32:00,
2013-04-11 00:42:00,51.0,48.0,-100.00,ESE,104,16.0,23.0,90,0.00,,,0.00,0.000000,,2013-04-11 10:42:00,
2013-04-11 00:52:00,51.0,48.0,-100.00,ESE,104,16.0,23.0,90,0.00,,,0.00,0.000000,,2013-04-11 10:52:00,
2013-04-11 01:22:00,50.0,49.0,-100.00,ESE,102,15.0,24.0,95,0.00,,,-99.99,0.000000,,2013-04-11 11:22:00,
2013-04-11 01:32:00,50.0,49.0,-100.00,ESE,102,15.0,24.0,95,0.00,,,-99.99,0.000000,,2013-04-11 11:32:00,
2013-04-11 01:42:00,50.0,49.0,-100.00,ESE,102,15.0,24.0,95,0.00,,,-99.99,0.000000,,2013-04-11 11:42:00,
2013-04-11 01:52:00,50.0,49.0,-100.00,ESE,102,15.0,24.0,95,0.00,,,-99.99,0.000000,,2013-04-11 11:52:00,
2013-04-11 02:22:00,50.0,49.0,-100.00,ESE,105,13.0,24.0,95,0.00,,,-99.99,0.000000,,2013-04-11 12:22:00,
2013-04-11 02:32:00,50.0,49.0,-100.00,ESE,105,13.0,24.0,95,0.00,,,-99.99,0.000000,,2013-04-11 12:32:00,
2013-04-11 02:42:00,50.0,49.0,-100.00,ESE,105,13.0,24.0,95,0.00,,,-99.99,0.000000,,2013-04-11 12:42:00,
2013-04-11 02:52:00,50.0,49.0,-100.00,ESE,105,13.0,24.0,95,0.00,,,-99.99,0.000000,,2013-04-11 12:52:00,
2013-04-11 03:22:00,51.0,46.0,-100.00,ESE,106,13.0,22.0,83,0.00,,,0.00,0.000000,,2013-04-11 13:22:00,
2013-04-11 03:32:00,51.0,46.0,-100.00,ESE,106,13.0,22.0,83,0.00,,,0.00,0.000000,,2013-04-11 13:32:00,
2013-04-11 03:43:00,51.0,46.0,-100.00,ESE,106,13.0,22.0,83,0.00,,,0.00,0.000000,,2013-04-11 13:43:00,
2013-04-11 03:52:00,51.0,46.0,-100.00,ESE,106,13.0,22.0,83,0.00,,,0.00,0.000000,,2013-04-11 13:52:00,
2013-04-11 04:22:00,49.0,22.0,-100.00,SE,125,8.0,16.0,34,0.00,,,0.00,0.000000,,2013-04-11 14:22:00,
2013-04-11 04:32:00,49.0,22.0,-100.00,SE,125,8.0,16.0,34,0.00,,,0.00,0.000000,,2013-04-11 14:32:00,
2013-04-11 04:42:00,49.0,22.0,-100.00,SE,125,8.0,16.0,34,0.00,,,0.00,0.000000,,2013-04-11 14:42:00,
2013-04-11 04:52:00,49.0,22.0,-100.00,SE,125,8.0,16.0,34,0.00,,,0.00,0.000000,,2013-04-11 14:52:00,
2013-04-11 07:23:00,56.0,17.0,-100.00,ESE,119,8.0,13.0,21,-99.99,,,0.00,78.000000,,2013-04-11 17:23:00,
2013-04-11 07:32:00,56.0,17.0,-100.00,ESE,119,8.0,13.0,21,-99.99,,,0.00,78.000000,,2013-04-11 17:32:00,
2013-04-11 07:42:00,56.0,17.0,-100.00,ESE,119,8.0,13.0,21,-99.99,,,0.00,78.000000,,2013-04-11 17:42:00,
2013-04-11 07:52:00,56.0,17.0,-100.00,ESE,119,8.0,13.0,21,-99.99,,,0.00,78.000000,,2013-04-11 17:52:00,
2013-04-11 08:22:00,66.0,17.0,-100.00,ESE,110,10.0,16.0,15,0.00,,,0.00,396.000000,,2013-04-11 18:22:00,
2013-04-11 08:32:00,66.0,17.0,-100.00,ESE,110,10.0,16.0,15,0.00,,,0.00,396.000000,,2013-04-11 18:32:00,
2013-04-11 08:42:00,66.0,17.0,-100.00,ESE,110,10.0,16.0,15,0.00,,,0.00,396.000000,,2013-04-11 18:42:00,
2013-04-11 08:52:00,66.0,17.0,-100.00,ESE,110,10.0,16.0,15,0.00,,,0.00,396.000000,,2013-04-11 18:52:00,
2013-04-11 09:22:00,70.0,17.0,-100.00,ESE,109,11.0,16.0,13,0.00,,,0.00,715.000000,,2013-04-11 19:22:00,
2013-04-11 09:32:00,70.0,17.0,-100.00,ESE,109,11.0,16.0,13,0.00,,,0.00,715.000000,,2013-04-11 19:32:00,
2013-04-11 09:42:00,70.0,17.0,-100.00,ESE,109,11.0,16.0,13,0.00,,,0.00,715.000000,,2013-04-11 19:42:00,
2013-04-11 09:52:00,70.0,17.0,-100.00,ESE,109,11.0,16.0,13,0.00,,,0.00,715.000000,,2013-04-11 19:52:00,
2013-04-11 10:22:00,70.0,17.0,-100.00,East,99,14.0,21.0,13,0.00,,,0.00,987.000000,,2013-04-11 20:22:00,
2013-04-11 10:33:00,70.0,17.0,-100.00,East,99,14.0,21.0,13,0.00,,,0.00,987.000000,,2013-04-11 20:33:00,
2013-04-11 10:42:00,70.0,17.0,-100.00,East,99,14.0,21.0,13,0.00,,,0.00,987.000000,,2013-04-11 20:42:00,
2013-04-11 10:52:00,70.0,17.0,-100.00,East,99,14.0,21.0,13,0.00,,,0.00,987.000000,,2013-04-11 20:52:00,
2013-04-11 11:22:00,70.0,30.0,-100.00,East,92,15.0,24.0,23,0.00,,,0.00,1192.000000,,2013-04-11 21:22:00,
2013-04-11 11:33:00,70.0,30.0,-100.00,East,92,15.0,24.0,23,0.00,,,0.00,1192.000000,,2013-04-11 21:33:00,
2013-04-11 11:42:00,70.0,30.0,-100.00,East,92,15.0,24.0,23,0.00,,,0.00,1192.000000,,2013-04-11 21:42:00,
2013-04-11 11:53:00,70.0,30.0,-100.00,East,92,15.0,24.0,23,0.00,,,0.00,1192.000000,,2013-04-11 21:53:00,
2013-04-11 12:23:00,73.0,35.0,-100.00,East,98,15.0,29.0,25,0.00,,,0.00,1306.000000,,2013-04-11 22:23:00,
2013-04-11 12:32:00,73.0,35.0,-100.00,East,98,15.0,29.0,25,0.00,,,0.00,1306.000000,,2013-04-11 22:32:00,
2013-04-11 12:43:00,73.0,35.0,-100.00,East,98,15.0,29.0,25,0.00,,,0.00,1306.000000,,2013-04-11 22:43:00,
2013-04-11 12:52:00,73.0,35.0,-100.00,East,98,15.0,29.0,25,0.00,,,0.00,1306.000000,,2013-04-11 22:52:00,
2013-04-11 13:22:00,72.0,41.0,-100.00,East,92,15.0,28.0,32,0.00,,,0.00,1347.000000,,2013-04-11 23:22:00,
2013-04-11 13:32:00,72.0,41.0,-100.00,East,92,15.0,28.0,32,0.00,,,0.00,1347.000000,,2013-04-11 23:32:00,
2013-04-11 13:42:00,72.0,41.0,-100.00,East,92,15.0,28.0,32,0.00,,,0.00,1347.000000,,2013-04-11 23:42:00,
2013-04-11 13:52:00,72.0,41.0,-100.00,East,92,15.0,28.0,32,0.00,,,0.00,1347.000000,,2013-04-11 23:52:00,
2013-04-11 14:22:00,72.0,46.0,-100.00,East,84,16.0,26.0,40,0.00,,,0.00,1323.000000,,2013-04-12 00:22:00,
2013-04-11 14:32:00,72.0,46.0,-100.00,East,84,16.0,26.0,40,0.00,,,0.00,1323.000000,,2013-04-12 00:32:00,
2013-04-11 14:42:00,72.0,46.0,-100.00,East,84,16.0,26.0,40,0.00,,,0.00,1323.000000,,2013-04-12 00:42:00,
2013-04-11 14:52:00,72.0,46.0,-100.00,East,84,16.0,26.0,40,0.00,,,0.00,1323.000000,,2013-04-12 00:52:00,
2013-04-11 15:22:00,69.0,46.0,-100.00,East,96,14.0,26.0,44,0.00,,,0.00,1172.000000,,2013-04-12 01:22:00,
2013-04-11 15:32:00,69.0,46.0,-100.00,East,96,14.0,26.0,44,0.00,,,0.00,1172.000000,,2013-04-12 01:32:00,
2013-04-11 15:42:00,69.0,46.0,-100.00,East,96,14.0,26.0,44,0.00,,,0.00,1172.000000,,2013-04-12 01:42:00,
2013-04-11 15:52:00,69.0,46.0,-100.00,East,96,14.0,26.0,44,0.00,,,0.00,1172.000000,,2013-04-12 01:52:00,
2013-04-11 16:22:00,68.0,50.0,-100.00,East,91,12.0,25.0,53,0.00,,,-99.99,525.000000,,2013-04-12 02:22:00,
2013-04-11 16:32:00,68.0,50.0,-100.00,East,91,12.0,25.0,53,0.00,,,-99.99,525.000000,,2013-04-12 02:32:00,
2013-04-11 16:42:00,68.0,50.0,-100.00,East,91,12.0,25.0,53,0.00,,,-99.99,525.000000,,2013-04-12 02:42:00,
2013-04-11 16:52:00,68.0,50.0,-100.00,East,91,12.0,25.0,53,0.00,,,-99.99,525.000000,,2013-04-12 02:52:00,
2013-04-11 17:22:00,67.0,51.0,-100.00,East,91,15.0,24.0,57,0.00,,,0.00,590.000000,,2013-04-12 03:22:00,
2013-04-11 17:33:00,67.0,51.0,-100.00,East,91,15.0,24.0,57,0.00,,,0.00,590.000000,,2013-04-12 03:33:00,
2013-04-11 17:43:00,67.0,51.0,-100.00,East,91,15.0,24.0,57,0.00,,,0.00,590.000000,,2013-04-12 03:43:00,
2013-04-11 17:52:00,67.0,51.0,-100.00,East,91,15.0,24.0,57,0.00,,,0.00,590.000000,,2013-04-12 03:52:00,
2013-04-11 18:22:00,63.0,53.0,-100.00,ESE,102,15.0,24.0,71,0.00,,,0.00,267.000000,,2013-04-12 04:22:00,
2013-04-11 18:33:00,63.0,53.0,-100.00,ESE,102,15.0,24.0,71,0.00,,,0.00,267.000000,,2013-04-12 04:33:00,
2013-04-11 18:43:00,63.0,53.0,-100.00,ESE,102,15.0,24.0,71,0.00,,,0.00,267.000000,,2013-04-12 04:43:00,
2013-04-11 18:52:00,63.0,53.0,-100.00,ESE,102,15.0,24.0,71,0.00,,,0.00,267.000000,,2013-04-12 04:52:00,
2013-04-11 19:22:00,59.0,46.0,-100.00,ESE,116,14.0,23.0,63,0.00,,,-99.99,57.000000,,2013-04-12 05:22:00,
2013-04-11 19:32:00,59.0,46.0,-100.00,ESE,116,14.0,23.0,63,0.00,,,-99.99,57.000000,,2013-04-12 05:32:00,
2013-04-11 19:42:00,59.0,46.0,-100.00,ESE,116,14.0,23.0,63,0.00,,,-99.99,57.000000,,2013-04-12 05:42:00,
2013-04-11 19:52:00,59.0,46.0,-100.00,ESE,116,14.0,23.0,63,0.00,,,-99.99,57.000000,,2013-04-12 05:52:00,
2013-04-11 20:22:00,58.0,51.0,-100.00,ESE,108,11.0,19.0,77,0.00,,,0.00,0.000000,,2013-04-12 06:22:00,
2013-04-11 20:32:00,58.0,51.0,-100.00,ESE,108,11.0,19.0,77,0.00,,,0.00,0.000000,,2013-04-12 06:32:00,
2013-04-11 20:42:00,58.0,51.0,-100.00,ESE,108,11.0,19.0,77,0.00,,,0.00,0.000000,,2013-04-12 06:42:00,
2013-04-11 20:52:00,58.0,51.0,-100.00,ESE,108,11.0,19.0,77,0.00,,,0.00,0.000000,,2013-04-12 06:52:00,
2013-04-11 21:22:00,57.0,36.0,-100.00,ESE,115,10.0,18.0,46,0.00,,,0.00,0.000000,,2013-04-12 07:22:00,
2013-04-11 21:32:00,57.0,36.0,-100.00,ESE,115,10.0,18.0,46,0.00,,,0.00,0.000000,,2013-04-12 07:32:00,
2013-04-11 21:42:00,57.0,36.0,-100.00,ESE,115,10.0,18.0,46,0.00,,,0.00,0.000000,,2013-04-12 07:42:00,
2013-04-11 21:52:00,57.0,36.0,-100.00,ESE,115,10.0,18.0,46,0.00,,,0.00,0.000000,,2013-04-12 07:52:00,
2013-04-11 22:22:00,57.0,28.0,-100.00,ESE,103,9.0,16.0,33,0.00,,,0.00,0.000000,,2013-04-12 08:22:00,
2013-04-11 22:32:00,57.0,28.0,-100.00,ESE,103,9.0,16.0,33,0.00,,,0.00,0.000000,,2013-04-12 08:32:00,
2013-04-11 22:42:00,57.0,28.0,-100.00,ESE,103,9.0,16.0,33,0.00,,,0.00,0.000000,,2013-04-12 08:42:00,
2013-04-11 22:52:00,57.0,28.0,-100.00,ESE,103,9.0,16.0,33,0.00,,,0.00,0.000000,,2013-04-12 08:52:00,
2013-04-11 23:22:00,57.0,21.0,-100.00,SE,130,9.0,15.0,24,0.00,,,0.00,0.000000,,2013-04-12 09:22:00,
2013-04-11 23:32:00,57.0,21.0,-100.00,SE,130,9.0,15.0,24,0.00,,,0.00,0.000000,,2013-04-12 09:32:00,
2013-04-11 23:43:00,57.0,21.0,-100.00,SE,130,9.0,15.0,24,0.00,,,0.00,0.000000,,2013-04-12 09:43:00,
2013-04-11 23:52:00,57.0,21.0,-100.00,SE,130,9.0,15.0,24,0.00,,,0.00,0.000000,,2013-04-12 09:52:00,